createdAt,value
2023-04-09T00:00:02.888Z,85.10
2023-04-09T00:02:29.724Z,85.10
2023-04-09T00:04:56.458Z,85.10
2023-04-09T00:07:23.168Z,85.20
2023-04-09T00:09:50.141Z,85.40
2023-04-09T00:12:16.865Z,85.60
2023-04-09T00:14:43.560Z,85.80
2023-04-09T00:17:10.317Z,85.90
2023-04-09T00:19:36.977Z,86.10
2023-04-09T00:22:03.655Z,86.20
2023-04-09T00:24:30.358Z,86.70
2023-04-09T00:26:57.336Z,86.80
2023-04-09T00:29:24.036Z,86.80
2023-04-09T00:31:51.161Z,87.10
2023-04-09T00:34:17.980Z,87.20
2023-04-09T00:36:44.656Z,87.40
2023-04-09T00:39:11.471Z,87.30
2023-04-09T00:41:38.165Z,87.20
2023-04-09T00:44:04.938Z,87.50
2023-04-09T00:46:31.815Z,87.30
2023-04-09T00:48:58.679Z,87.60
2023-04-09T00:51:25.392Z,87.40
2023-04-09T00:53:53.095Z,87.60
2023-04-09T00:56:22.240Z,87.70
2023-04-09T00:58:49.354Z,87.90
2023-04-09T01:01:16.415Z,87.80
2023-04-09T01:03:43.420Z,88.20
2023-04-09T01:06:12.048Z,88.20
2023-04-09T01:08:38.726Z,88.40
2023-04-09T01:11:10.158Z,88.40
2023-04-09T01:13:42.485Z,88.20
2023-04-09T01:16:10.314Z,88.50
2023-04-09T01:18:51.607Z,88.70
2023-04-09T01:21:20.500Z,88.60
2023-04-09T01:23:52.482Z,88.60
2023-04-09T01:26:19.528Z,88.50
2023-04-09T01:28:47.822Z,88.70
2023-04-09T01:31:18.374Z,88.80
2023-04-09T01:33:45.632Z,88.50
2023-04-09T01:36:12.786Z,88.60
2023-04-09T01:38:43.136Z,88.40
2023-04-09T01:41:11.401Z,88.20
2023-04-09T01:43:38.291Z,88.30
2023-04-09T01:46:05.153Z,88.10
2023-04-09T01:48:32.864Z,88.40
2023-04-09T01:50:59.872Z,87.10
2023-04-09T01:53:31.150Z,87.20
2023-04-09T01:56:01.526Z,86.20
2023-04-09T01:58:28.409Z,85.40
2023-04-09T02:01:05.636Z,85.00
2023-04-09T02:03:41.067Z,83.80
2023-04-09T02:06:13.534Z,83.20
2023-04-09T02:08:41.741Z,83.80
2023-04-09T02:11:10.675Z,84.90
2023-04-09T02:13:37.654Z,85.30
2023-04-09T02:16:04.710Z,84.40
2023-04-09T02:18:32.658Z,83.70
2023-04-09T02:20:59.836Z,83.10
2023-04-09T02:23:27.362Z,82.70
2023-04-09T02:25:54.148Z,82.80
2023-04-09T02:28:20.924Z,82.70
2023-04-09T02:30:47.636Z,82.70
2023-04-09T02:33:14.379Z,82.40
2023-04-09T02:35:41.120Z,82.40
2023-04-09T02:38:13.637Z,82.40
2023-04-09T02:40:41.363Z,82.00
2023-04-09T02:43:08.501Z,81.90
2023-04-09T02:45:35.257Z,82.40
2023-04-09T02:48:02.028Z,82.70
2023-04-09T02:50:29.528Z,81.70
2023-04-09T02:52:56.412Z,81.90
2023-04-09T02:55:23.147Z,81.90
2023-04-09T02:57:49.837Z,82.50
2023-04-09T03:00:16.572Z,82.50
2023-04-09T03:02:43.404Z,82.90
2023-04-09T03:05:10.290Z,82.60
2023-04-09T03:07:36.987Z,82.40
2023-04-09T03:10:03.783Z,83.40
2023-04-09T03:12:30.643Z,82.80
2023-04-09T03:14:57.320Z,83.10
2023-04-09T03:17:27.176Z,83.00
2023-04-09T03:19:54.079Z,83.40
2023-04-09T03:22:20.827Z,84.00
2023-04-09T03:24:47.627Z,84.00
2023-04-09T03:27:14.381Z,83.30
2023-04-09T03:29:41.100Z,83.50
2023-04-09T03:32:07.861Z,83.30
2023-04-09T03:34:34.547Z,83.20
2023-04-09T03:37:01.252Z,83.40
2023-04-09T03:39:30.859Z,82.50
2023-04-09T03:41:58.201Z,82.70
2023-04-09T03:44:25.356Z,81.70
2023-04-09T03:46:52.125Z,81.50
2023-04-09T03:49:18.877Z,81.20
2023-04-09T03:51:45.620Z,81.90
2023-04-09T03:54:12.410Z,81.20
2023-04-09T03:56:39.100Z,80.40
2023-04-09T03:59:06.569Z,80.00
2023-04-09T04:01:33.458Z,79.20
2023-04-09T04:04:00.422Z,77.30
2023-04-09T04:06:27.840Z,75.00
2023-04-09T04:08:54.773Z,73.50
2023-04-09T04:11:21.737Z,72.50
2023-04-09T04:13:48.410Z,70.90
2023-04-09T04:16:15.576Z,70.90
2023-04-09T04:18:42.324Z,69.70
2023-04-09T04:21:15.976Z,68.70
2023-04-09T04:23:42.704Z,67.00
2023-04-09T04:26:10.784Z,66.20
2023-04-09T04:28:40.766Z,66.20
2023-04-09T04:31:10.906Z,64.60
2023-04-09T04:33:38.560Z,64.30
2023-04-09T04:36:06.619Z,63.60
2023-04-09T04:38:33.617Z,63.50
2023-04-09T04:41:00.575Z,62.40
2023-04-09T04:43:27.451Z,61.80
2023-04-09T04:45:54.310Z,60.90
2023-04-09T04:48:21.686Z,60.50
2023-04-09T04:50:54.747Z,59.80
2023-04-09T04:53:21.632Z,58.80
2023-04-09T04:55:48.321Z,58.40
2023-04-09T04:58:15.020Z,57.10
2023-04-09T05:00:41.820Z,56.70
2023-04-09T05:03:08.679Z,56.40
2023-04-09T05:05:35.528Z,56.00
2023-04-09T05:08:02.212Z,54.80
2023-04-09T05:10:28.986Z,55.60
2023-04-09T05:12:55.921Z,54.80
2023-04-09T05:15:22.654Z,54.00
2023-04-09T05:17:50.142Z,53.00
2023-04-09T05:20:16.952Z,53.10
2023-04-09T05:22:43.732Z,52.60
2023-04-09T05:25:10.777Z,53.30
2023-04-09T05:27:37.491Z,51.90
2023-04-09T05:30:04.402Z,50.40
2023-04-09T05:32:31.347Z,50.30
2023-04-09T05:34:58.111Z,50.50
2023-04-09T05:37:25.439Z,48.10
2023-04-09T05:39:52.122Z,47.60
2023-04-09T05:42:18.820Z,47.90
2023-04-09T05:44:45.726Z,48.10
2023-04-09T05:47:12.457Z,47.10
2023-04-09T05:49:39.193Z,47.20
2023-04-09T05:52:05.864Z,46.80
2023-04-09T05:54:32.564Z,45.50
2023-04-09T05:56:59.270Z,45.00
2023-04-09T05:59:26.060Z,45.00
2023-04-09T06:01:52.795Z,44.60
2023-04-09T06:04:19.708Z,44.40
2023-04-09T06:06:47.098Z,43.10
2023-04-09T06:09:13.800Z,43.40
2023-04-09T06:11:40.526Z,43.30
2023-04-09T06:14:07.277Z,43.60
2023-04-09T06:16:34.610Z,42.90
2023-04-09T06:19:01.313Z,44.10
2023-04-09T06:21:28.008Z,43.50
2023-04-09T06:23:54.965Z,43.70
2023-04-09T06:26:21.872Z,43.20
2023-04-09T06:28:48.594Z,44.60
2023-04-09T06:31:15.635Z,44.80
2023-04-09T06:33:42.353Z,45.70
2023-04-09T06:36:09.063Z,46.40
2023-04-09T06:38:36.019Z,46.90
2023-04-09T06:41:03.673Z,47.60
2023-04-09T06:43:30.692Z,48.80
2023-04-09T06:45:57.430Z,48.60
2023-04-09T06:48:24.132Z,47.50
2023-04-09T06:50:50.929Z,47.80
2023-04-09T06:53:18.181Z,47.10
2023-04-09T06:55:44.920Z,46.20
2023-04-09T06:58:11.658Z,44.10
2023-04-09T07:00:38.360Z,42.00
2023-04-09T07:03:05.736Z,40.80
2023-04-09T07:05:33.318Z,40.20
2023-04-09T07:08:00.052Z,40.00
2023-04-09T07:10:26.823Z,40.30
2023-04-09T07:12:53.544Z,39.90
2023-04-09T07:15:20.289Z,38.90
2023-04-09T07:17:47.040Z,39.40
2023-04-09T07:20:13.792Z,39.70
2023-04-09T07:22:40.531Z,40.00
2023-04-09T07:25:07.616Z,39.80
2023-04-09T07:27:35.026Z,38.70
2023-04-09T07:30:01.842Z,39.00
2023-04-09T07:32:28.740Z,38.70
2023-04-09T07:34:55.841Z,38.30
2023-04-09T07:37:23.249Z,37.90
2023-04-09T07:39:51.274Z,37.20
2023-04-09T07:42:18.123Z,37.30
2023-04-09T07:44:45.010Z,37.40
2023-04-09T07:47:12.980Z,36.90
2023-04-09T07:49:39.805Z,37.00
2023-04-09T07:52:06.640Z,36.40
2023-04-09T07:54:33.936Z,36.60
2023-04-09T07:57:01.800Z,36.40
2023-04-09T07:59:29.632Z,35.80
2023-04-09T08:01:56.773Z,35.40
2023-04-09T08:04:23.728Z,35.10
2023-04-09T08:06:51.214Z,35.90
2023-04-09T08:09:18.583Z,35.20
2023-04-09T08:11:48.316Z,34.60
2023-04-09T08:14:15.838Z,34.80
2023-04-09T08:16:43.260Z,34.50
2023-04-09T08:19:10.300Z,34.70
2023-04-09T08:21:37.752Z,34.30
2023-04-09T08:24:05.715Z,33.60
2023-04-09T08:26:32.627Z,33.20
2023-04-09T08:28:59.413Z,33.30
2023-04-09T08:31:26.479Z,33.80
2023-04-09T08:33:53.588Z,33.30
2023-04-09T08:36:21.118Z,33.70
2023-04-09T08:38:48.963Z,33.60
2023-04-09T08:41:25.829Z,32.70
2023-04-09T08:43:58.191Z,32.90
2023-04-09T08:46:29.020Z,32.30
2023-04-09T08:48:56.191Z,32.50
2023-04-09T08:51:24.080Z,32.10
2023-04-09T08:54:03.726Z,32.30
2023-04-09T08:56:31.346Z,32.50
2023-04-09T08:58:58.632Z,32.30
2023-04-09T09:01:29.964Z,31.90
2023-04-09T09:04:01.110Z,32.20
2023-04-09T09:06:29.257Z,32.30
2023-04-09T09:09:01.927Z,31.60
2023-04-09T09:11:30.270Z,31.60
2023-04-09T09:14:01.032Z,31.30
2023-04-09T09:16:27.880Z,31.70
2023-04-09T09:18:56.091Z,31.20
2023-04-09T09:21:23.325Z,31.50
2023-04-09T09:23:50.936Z,31.10
2023-04-09T09:26:18.971Z,30.70
2023-04-09T09:28:48.264Z,31.10
2023-04-09T09:31:16.058Z,31.20
2023-04-09T09:33:43.630Z,30.90
2023-04-09T09:36:10.736Z,31.10
2023-04-09T09:39:05.304Z,30.90
2023-04-09T09:41:32.064Z,30.60
2023-04-09T09:43:58.834Z,30.50
2023-04-09T09:46:26.522Z,29.70
2023-04-09T09:48:53.757Z,30.00
2023-04-09T09:51:22.359Z,30.60
2023-04-09T09:53:50.224Z,30.40
2023-04-09T09:56:19.312Z,30.70
2023-04-09T09:58:51.286Z,30.90
2023-04-09T10:01:19.887Z,30.10
2023-04-09T10:03:46.973Z,30.40
2023-04-09T10:06:14.487Z,29.90
2023-04-09T10:08:42.268Z,29.40
2023-04-09T10:11:09.018Z,29.30
2023-04-09T10:13:37.914Z,29.00
2023-04-09T10:16:04.891Z,28.80
2023-04-09T10:18:34.832Z,28.70
2023-04-09T10:21:20.344Z,28.70
2023-04-09T10:23:49.449Z,29.70
2023-04-09T10:26:18.035Z,30.60
2023-04-09T10:28:44.758Z,31.10
2023-04-09T10:31:11.722Z,31.20
2023-04-09T10:33:38.950Z,30.90
2023-04-09T10:36:18.955Z,30.60
2023-04-09T10:38:46.849Z,30.00
2023-04-09T10:41:25.338Z,30.30
2023-04-09T10:43:52.061Z,30.60
2023-04-09T10:46:27.721Z,30.20
2023-04-09T10:49:27.134Z,30.00
2023-04-09T10:51:53.890Z,29.30
2023-04-09T10:54:32.812Z,29.70
2023-04-09T10:57:11.637Z,29.70
2023-04-09T10:59:41.193Z,29.30
2023-04-09T11:02:17.307Z,29.30
2023-04-09T11:05:02.621Z,29.30
2023-04-09T11:07:30.403Z,29.00
2023-04-09T11:09:57.115Z,28.90
2023-04-09T11:12:23.790Z,28.80
2023-04-09T11:14:50.517Z,28.90
2023-04-09T11:17:18.302Z,28.90
2023-04-09T11:19:45.254Z,28.90
2023-04-09T11:22:12.907Z,29.00
2023-04-09T11:24:42.369Z,29.30
2023-04-09T11:27:09.203Z,28.80
2023-04-09T11:29:36.397Z,28.40
2023-04-09T11:32:05.208Z,28.70
2023-04-09T11:34:32.349Z,28.60
2023-04-09T11:36:59.906Z,28.40
2023-04-09T11:39:26.722Z,28.30
2023-04-09T11:41:53.575Z,28.10
2023-04-09T11:44:23.157Z,28.30
2023-04-09T11:46:50.503Z,28.20
2023-04-09T11:49:17.412Z,27.90
2023-04-09T11:51:44.325Z,27.70
2023-04-09T11:54:12.041Z,28.00
2023-04-09T11:56:38.744Z,27.70
2023-04-09T11:59:05.665Z,27.90
2023-04-09T12:01:33.383Z,27.70
2023-04-09T12:04:01.356Z,27.70
2023-04-09T12:06:28.709Z,27.70
2023-04-09T12:08:58.966Z,27.70
2023-04-09T12:11:29.869Z,27.80
2023-04-09T12:14:00.574Z,28.00
2023-04-09T12:16:27.348Z,28.10
2023-04-09T12:18:55.881Z,27.80
2023-04-09T12:21:27.193Z,28.00
2023-04-09T12:23:53.938Z,28.10
2023-04-09T12:26:20.971Z,28.10
2023-04-09T12:28:47.751Z,28.20
2023-04-09T12:31:14.587Z,28.50
2023-04-09T12:33:41.372Z,28.20
2023-04-09T12:36:08.181Z,28.20
2023-04-09T12:38:34.971Z,28.30
2023-04-09T12:41:02.153Z,28.20
2023-04-09T12:43:28.872Z,28.00
2023-04-09T12:45:55.828Z,28.50
2023-04-09T12:48:22.557Z,28.70
2023-04-09T12:50:49.347Z,28.70
2023-04-09T12:53:16.192Z,28.50
2023-04-09T12:55:43.045Z,28.70
2023-04-09T12:58:09.849Z,28.90
2023-04-09T13:00:36.540Z,28.90
2023-04-09T13:03:03.465Z,28.90
2023-04-09T13:05:32.601Z,28.60
2023-04-09T13:07:59.451Z,28.70
2023-04-09T13:10:26.263Z,28.80
2023-04-09T13:12:53.168Z,29.20
2023-04-09T13:15:19.906Z,29.40
2023-04-09T13:17:46.765Z,29.70
2023-04-09T13:20:13.723Z,29.70
2023-04-09T13:22:40.869Z,29.80
2023-04-09T13:25:07.684Z,30.00
2023-04-09T13:27:34.437Z,30.20
2023-04-09T13:30:01.196Z,30.90
2023-04-09T13:32:28.045Z,31.50
2023-04-09T13:34:55.920Z,34.00
2023-04-09T13:37:22.701Z,36.60
2023-04-09T13:39:49.875Z,38.50
2023-04-09T13:42:17.146Z,40.30
2023-04-09T13:44:45.528Z,41.30
2023-04-09T13:47:13.228Z,41.70
2023-04-09T13:49:40.774Z,42.20
2023-04-09T13:52:07.782Z,42.60
2023-04-09T13:54:34.755Z,42.60
2023-04-09T13:57:01.561Z,43.10
2023-04-09T13:59:28.285Z,43.40
2023-04-09T14:01:55.367Z,43.70
2023-04-09T14:04:22.664Z,44.00
2023-04-09T14:06:49.479Z,44.20
2023-04-09T14:09:16.431Z,44.30
2023-04-09T14:11:43.222Z,44.50
2023-04-09T14:14:10.719Z,44.40
2023-04-09T14:16:37.625Z,44.20
2023-04-09T14:19:04.514Z,44.30
2023-04-09T14:21:32.032Z,44.50
2023-04-09T14:23:58.786Z,44.60
2023-04-09T14:26:26.639Z,45.10
2023-04-09T14:28:53.556Z,45.40
2023-04-09T14:31:21.548Z,45.60
2023-04-09T14:33:48.791Z,45.50
2023-04-09T14:36:17.629Z,45.60
2023-04-09T14:38:44.495Z,45.40
2023-04-09T14:41:11.239Z,45.10
2023-04-09T14:43:38.093Z,45.50
2023-04-09T14:46:06.449Z,45.80
2023-04-09T14:48:33.302Z,45.80
2023-04-09T14:51:00.120Z,46.50
2023-04-09T14:53:26.913Z,46.20
2023-04-09T14:55:53.719Z,45.90
2023-04-09T14:58:20.809Z,47.00
2023-04-09T15:00:47.684Z,47.00
2023-04-09T15:03:14.595Z,47.30
2023-04-09T15:05:41.641Z,47.50
2023-04-09T15:08:08.374Z,47.50
2023-04-09T15:10:36.284Z,47.60
2023-04-09T15:13:02.987Z,47.70
2023-04-09T15:15:29.757Z,47.40
2023-04-09T15:17:56.705Z,47.20
2023-04-09T15:20:23.622Z,47.50
2023-04-09T15:22:50.385Z,46.80
2023-04-09T15:25:17.777Z,46.90
2023-04-09T15:27:44.501Z,47.10
2023-04-09T15:30:11.518Z,47.50
2023-04-09T15:32:38.571Z,47.90
2023-04-09T15:35:05.462Z,47.50
2023-04-09T15:37:32.194Z,47.70
2023-04-09T15:39:59.062Z,48.00
2023-04-09T15:42:25.854Z,48.10
2023-04-09T15:44:52.709Z,48.80
2023-04-09T15:47:19.582Z,48.80
2023-04-09T15:49:46.379Z,49.30
2023-04-09T15:52:13.152Z,49.40
2023-04-09T15:54:39.861Z,49.90
2023-04-09T15:57:06.819Z,49.70
2023-04-09T15:59:33.552Z,49.50
2023-04-09T16:02:00.497Z,49.70
2023-04-09T16:04:27.687Z,50.10
2023-04-09T16:06:56.289Z,49.90
2023-04-09T16:09:23.683Z,50.10
2023-04-09T16:11:51.197Z,50.50
2023-04-09T16:14:18.059Z,50.30
2023-04-09T16:16:50.185Z,50.50
2023-04-09T16:19:21.316Z,50.70
2023-04-09T16:21:49.088Z,51.00
2023-04-09T16:24:15.890Z,51.40
2023-04-09T16:26:43.390Z,51.60
2023-04-09T16:29:10.262Z,51.60
2023-04-09T16:31:37.575Z,51.40
2023-04-09T16:34:04.454Z,51.60
2023-04-09T16:36:33.472Z,52.10
2023-04-09T16:39:00.344Z,52.10
2023-04-09T16:41:27.056Z,52.20
2023-04-09T16:43:53.869Z,52.70
2023-04-09T16:46:20.764Z,52.60
2023-04-09T16:48:47.511Z,52.80
2023-04-09T16:51:14.258Z,53.10
2023-04-09T16:53:41.005Z,52.80
2023-04-09T16:56:08.078Z,52.90
2023-04-09T16:58:35.007Z,53.20
2023-04-09T17:01:02.215Z,53.30
2023-04-09T17:03:29.166Z,53.80
2023-04-09T17:05:57.252Z,54.10
2023-04-09T17:08:26.873Z,53.90
2023-04-09T17:11:01.483Z,54.60
2023-04-09T17:13:37.104Z,54.70
2023-04-09T17:16:03.960Z,55.00
2023-04-09T17:18:30.750Z,55.50
2023-04-09T17:20:57.680Z,55.70
2023-04-09T17:23:24.624Z,55.80
2023-04-09T17:25:51.430Z,56.70
2023-04-09T17:28:19.093Z,57.00
2023-04-09T17:30:45.991Z,57.20
2023-04-09T17:33:12.955Z,58.00
2023-04-09T17:35:39.776Z,58.10
2023-04-09T17:38:06.784Z,58.70
2023-04-09T17:40:33.762Z,58.70
2023-04-09T17:43:00.841Z,59.20
2023-04-09T17:45:27.616Z,59.30
2023-04-09T17:47:54.445Z,59.10
2023-04-09T17:50:21.364Z,60.00
2023-04-09T17:52:48.322Z,59.60
2023-04-09T17:55:15.434Z,59.70
2023-04-09T17:57:42.924Z,60.20
2023-04-09T18:00:10.061Z,60.30
2023-04-09T18:02:37.270Z,60.70
2023-04-09T18:05:07.554Z,60.80
2023-04-09T18:07:34.550Z,61.10
2023-04-09T18:10:02.108Z,60.90
2023-04-09T18:12:29.213Z,61.20
2023-04-09T18:14:56.049Z,62.00
2023-04-09T18:17:22.969Z,61.60
2023-04-09T18:19:49.785Z,62.30
2023-04-09T18:22:16.631Z,62.00
2023-04-09T18:24:43.314Z,62.00
2023-04-09T18:27:10.323Z,62.20
2023-04-09T18:29:37.165Z,62.60
2023-04-09T18:32:03.996Z,62.80
2023-04-09T18:34:30.906Z,62.80
2023-04-09T18:36:57.633Z,62.80
2023-04-09T18:39:24.488Z,63.00
2023-04-09T18:41:51.566Z,63.20
2023-04-09T18:44:18.350Z,63.30
2023-04-09T18:46:45.478Z,63.40
2023-04-09T18:49:12.283Z,63.90
2023-04-09T18:51:39.008Z,63.80
2023-04-09T18:54:05.690Z,63.90
2023-04-09T18:56:32.424Z,64.10
2023-04-09T18:58:59.182Z,64.30
2023-04-09T19:01:26.025Z,64.10
2023-04-09T19:03:53.658Z,64.20
2023-04-09T19:06:20.949Z,64.30
2023-04-09T19:08:48.142Z,64.60
2023-04-09T19:11:15.075Z,64.20
2023-04-09T19:13:41.875Z,64.40
2023-04-09T19:16:09.412Z,64.40
2023-04-09T19:18:37.063Z,64.40
2023-04-09T19:21:03.979Z,64.50
2023-04-09T19:23:30.766Z,65.00
2023-04-09T19:25:57.614Z,64.80
2023-04-09T19:28:24.515Z,64.80
2023-04-09T19:30:52.452Z,64.70
2023-04-09T19:33:26.500Z,64.70
2023-04-09T19:35:54.720Z,64.60
2023-04-09T19:38:21.593Z,64.90
2023-04-09T19:40:48.375Z,65.30
2023-04-09T19:43:15.066Z,65.20
2023-04-09T19:45:42.741Z,65.10
2023-04-09T19:48:09.762Z,65.00
2023-04-09T19:50:43.839Z,64.80
2023-04-09T19:53:10.907Z,65.00
2023-04-09T19:55:37.736Z,65.30
2023-04-09T19:58:05.048Z,65.10
2023-04-09T20:00:32.350Z,65.10
2023-04-09T20:02:59.162Z,65.10
2023-04-09T20:05:26.356Z,64.90
2023-04-09T20:07:53.114Z,65.00
2023-04-09T20:10:19.984Z,65.10
2023-04-09T20:12:47.503Z,64.50
2023-04-09T20:15:14.636Z,65.20
2023-04-09T20:17:44.078Z,64.70
2023-04-09T20:20:11.815Z,64.50
2023-04-09T20:22:43.213Z,64.50
2023-04-09T20:25:11.124Z,64.30
2023-04-09T20:27:38.630Z,64.80
2023-04-09T20:30:06.272Z,64.40
2023-04-09T20:32:33.163Z,65.40
2023-04-09T20:34:59.920Z,65.00
2023-04-09T20:37:26.651Z,64.80
2023-04-09T20:39:53.414Z,64.80
2023-04-09T20:42:20.344Z,64.60
2023-04-09T20:44:47.085Z,64.70
2023-04-09T20:47:15.475Z,64.50
